CCA1535 ZWWW-ZSSS
Flight info
| Callsign | CCA1535 |
|---|---|
| Flight time | 4h 4m |
| Altitude | 35100 |
| Route | FKG B215 NUKTI V67 ALGOT W199 NIRUV B215 GODON W87 AGVUR B208 HFE R343 SASAN |
| Aircraft | A339/H-SADE1E2E3GHIJ1J3J5M1P2RWXY/LB1 |
Departure
| Time | 2026-05-01 07:40 |
|---|---|
| Airport | Ürümqi Tianshan International Airport (ZWWW) |
Arrival
| Time | 2026-05-01 11:45 |
|---|---|
| Airport | Shanghai Hongqiao International Airport (ZSSS) |
| Time | Latitude | Longitude | Altitude | Speed | Heading |
|---|---|---|---|---|---|
| 2026-05-01 07:23 | 43.92219 | 87.48530 | 2148 ft | 0 kts | 162° |
| 2026-05-01 07:26 | 43.92230 | 87.48525 | 2148 ft | 2 kts | 162° |
| 2026-05-01 07:26 | 43.92245 | 87.48519 | 2148 ft | 2 kts | 162° |
| 2026-05-01 07:26 | 43.92259 | 87.48513 | 2148 ft | 2 kts | 162° |
| 2026-05-01 07:27 | 43.92274 | 87.48507 | 2148 ft | 2 kts | 174° |
| 2026-05-01 07:27 | 43.92289 | 87.48508 | 2148 ft | 2 kts | 199° |
| 2026-05-01 07:27 | 43.92302 | 87.48518 | 2147 ft | 2 kts | 221° |
| 2026-05-01 07:27 | 43.92312 | 87.48534 | 2147 ft | 2 kts | 243° |
| 2026-05-01 07:28 | 43.92315 | 87.48544 | 2147 ft | 1 kts | 255° |
| 2026-05-01 07:28 | 43.92316 | 87.48549 | 2147 ft | 0 kts | 253° |
| 2026-05-01 07:30 | 43.92316 | 87.48548 | 2147 ft | 0 kts | 253° |
| 2026-05-01 07:30 | 43.92313 | 87.48534 | 2147 ft | 2 kts | 253° |
| 2026-05-01 07:31 | 43.92305 | 87.48502 | 2147 ft | 4 kts | 253° |
| 2026-05-01 07:31 | 43.92264 | 87.48311 | 2148 ft | 9 kts | 253° |
| 2026-05-01 07:32 | 43.92251 | 87.48218 | 2148 ft | 2 kts | 296° |
| 2026-05-01 07:32 | 43.92272 | 87.48199 | 2148 ft | 4 kts | 338° |
| 2026-05-01 07:33 | 43.92355 | 87.48160 | 2147 ft | 7 kts | 342° |
| 2026-05-01 07:33 | 43.92388 | 87.48126 | 2147 ft | 6 kts | 295° |
| 2026-05-01 07:33 | 43.92368 | 87.47968 | 2147 ft | 10 kts | 252° |
| 2026-05-01 07:34 | 43.92344 | 87.47858 | 2147 ft | 13 kts | 253° |
| 2026-05-01 07:34 | 43.92284 | 87.47575 | 2148 ft | 16 kts | 253° |
| 2026-05-01 07:34 | 43.92249 | 87.47411 | 2148 ft | 18 kts | 253° |
| 2026-05-01 07:35 | 43.92212 | 87.47235 | 2148 ft | 19 kts | 253° |
| 2026-05-01 07:35 | 43.92171 | 87.47047 | 2148 ft | 20 kts | 253° |
| 2026-05-01 07:35 | 43.92130 | 87.46853 | 2148 ft | 21 kts | 253° |
| 2026-05-01 07:35 | 43.92087 | 87.46649 | 2148 ft | 21 kts | 253° |
| 2026-05-01 07:36 | 43.92044 | 87.46452 | 2148 ft | 21 kts | 253° |
| 2026-05-01 07:36 | 43.92004 | 87.46259 | 2148 ft | 20 kts | 253° |
| 2026-05-01 07:36 | 43.91964 | 87.46072 | 2148 ft | 19 kts | 253° |
| 2026-05-01 07:36 | 43.91925 | 87.45889 | 2148 ft | 19 kts | 253° |
| 2026-05-01 07:37 | 43.91850 | 87.45536 | 2148 ft | 18 kts | 253° |
| 2026-05-01 07:37 | 43.91815 | 87.45372 | 2149 ft | 13 kts | 253° |
| 2026-05-01 07:37 | 43.91792 | 87.45263 | 2149 ft | 10 kts | 253° |
| 2026-05-01 07:38 | 43.91781 | 87.45209 | 2149 ft | 2 kts | 262° |
| 2026-05-01 07:38 | 43.91791 | 87.45182 | 2149 ft | 4 kts | 316° |
| 2026-05-01 07:38 | 43.91866 | 87.45133 | 2148 ft | 7 kts | 343° |
| 2026-05-01 07:39 | 43.91912 | 87.45116 | 2148 ft | 2 kts | 344° |
| 2026-05-01 07:39 | 43.91931 | 87.45122 | 2148 ft | 3 kts | 32° |
| 2026-05-01 07:39 | 43.91960 | 87.45209 | 2148 ft | 9 kts | 73° |
| 2026-05-01 07:40 | 43.92034 | 87.45564 | 2148 ft | 75 kts | 73° |
| 2026-05-01 07:40 | 43.92252 | 87.46584 | 2148 ft | 141 kts | 73° |
| 2026-05-01 07:40 | 43.92581 | 87.48112 | 2383 ft | 176 kts | 75° |
| 2026-05-01 07:40 | 43.92912 | 87.49672 | 3188 ft | 168 kts | 73° |
| 2026-05-01 07:41 | 43.93231 | 87.51210 | 3975 ft | 166 kts | 73° |
| 2026-05-01 07:41 | 43.93538 | 87.52699 | 4693 ft | 159 kts | 72° |
| 2026-05-01 07:41 | 43.94155 | 87.55588 | 5584 ft | 166 kts | 72° |
| 2026-05-01 07:42 | 43.94500 | 87.57189 | 5873 ft | 181 kts | 72° |
| 2026-05-01 07:42 | 43.94873 | 87.58936 | 6170 ft | 197 kts | 72° |
| 2026-05-01 07:42 | 43.95282 | 87.60860 | 6467 ft | 214 kts | 72° |
| 2026-05-01 07:42 | 43.95715 | 87.62909 | 6783 ft | 232 kts | 72° |
| 2026-05-01 07:43 | 43.96348 | 87.65080 | 7166 ft | 247 kts | 60° |
| 2026-05-01 07:43 | 43.97357 | 87.67011 | 7764 ft | 253 kts | 50° |
| 2026-05-01 07:43 | 43.99724 | 87.70713 | 9122 ft | 258 kts | 48° |
| 2026-05-01 07:44 | 44.02134 | 87.74453 | 10445 ft | 264 kts | 48° |
| 2026-05-01 07:44 | 44.04592 | 87.78297 | 11809 ft | 268 kts | 47° |
| 2026-05-01 07:45 | 44.05824 | 87.80226 | 12487 ft | 270 kts | 47° |
| 2026-05-01 07:45 | 44.07074 | 87.82189 | 13165 ft | 271 kts | 47° |
| 2026-05-01 07:45 | 44.08323 | 87.84152 | 13843 ft | 273 kts | 47° |
| 2026-05-01 07:45 | 44.09582 | 87.86132 | 14498 ft | 276 kts | 47° |
| 2026-05-01 07:46 | 44.10865 | 87.88152 | 15166 ft | 278 kts | 47° |
| 2026-05-01 07:46 | 44.12133 | 87.90151 | 15819 ft | 280 kts | 47° |
| 2026-05-01 07:46 | 44.14725 | 87.94239 | 17124 ft | 284 kts | 46° |
| 2026-05-01 07:47 | 44.15984 | 87.96344 | 17756 ft | 288 kts | 56° |
| 2026-05-01 07:47 | 44.16677 | 87.98975 | 18348 ft | 297 kts | 81° |
| 2026-05-01 07:47 | 44.16522 | 88.01894 | 18763 ft | 314 kts | 103° |
| 2026-05-01 07:47 | 44.15800 | 88.04841 | 19060 ft | 330 kts | 106° |
| 2026-05-01 07:48 | 44.14194 | 88.11159 | 19632 ft | 360 kts | 106° |
| 2026-05-01 07:48 | 44.13354 | 88.14501 | 19907 ft | 374 kts | 105° |
| 2026-05-01 07:48 | 44.12487 | 88.17966 | 20169 ft | 388 kts | 105° |
| 2026-05-01 07:49 | 44.11590 | 88.21549 | 20602 ft | 396 kts | 105° |
| 2026-05-01 07:49 | 44.09759 | 88.28867 | 21801 ft | 403 kts | 105° |
| 2026-05-01 07:49 | 44.08837 | 88.32546 | 22363 ft | 406 kts | 105° |
| 2026-05-01 07:50 | 44.07906 | 88.36262 | 22896 ft | 410 kts | 105° |
| 2026-05-01 07:50 | 44.06008 | 88.43827 | 23941 ft | 417 kts | 105° |
| 2026-05-01 07:50 | 44.05053 | 88.47630 | 24431 ft | 421 kts | 105° |
| 2026-05-01 07:51 | 44.04092 | 88.51442 | 24891 ft | 425 kts | 105° |
| 2026-05-01 07:51 | 44.03106 | 88.55354 | 25335 ft | 429 kts | 105° |
| 2026-05-01 07:51 | 44.02126 | 88.59233 | 25776 ft | 432 kts | 105° |
| 2026-05-01 07:52 | 44.00111 | 88.67185 | 26662 ft | 439 kts | 105° |
| 2026-05-01 07:52 | 43.99090 | 88.71206 | 27075 ft | 442 kts | 105° |
| 2026-05-01 07:52 | 43.98069 | 88.75211 | 27460 ft | 446 kts | 105° |
| 2026-05-01 07:53 | 43.96044 | 88.83403 | 28229 ft | 452 kts | 103° |
| 2026-05-01 07:53 | 43.95095 | 88.87588 | 28632 ft | 455 kts | 103° |
| 2026-05-01 07:53 | 43.94143 | 88.91803 | 29031 ft | 458 kts | 103° |
| 2026-05-01 07:53 | 43.93192 | 88.96011 | 29410 ft | 461 kts | 103° |
| 2026-05-01 07:54 | 43.91256 | 89.04549 | 30140 ft | 466 kts | 103° |
| 2026-05-01 07:55 | 43.88311 | 89.17461 | 31094 ft | 474 kts | 103° |
| 2026-05-01 07:55 | 43.86306 | 89.26205 | 31738 ft | 477 kts | 103° |
| 2026-05-01 07:56 | 43.83278 | 89.39335 | 32850 ft | 476 kts | 103° |
| 2026-05-01 07:56 | 43.81263 | 89.48023 | 33646 ft | 473 kts | 103° |
| 2026-05-01 07:57 | 43.80264 | 89.52330 | 34009 ft | 471 kts | 103° |
| 2026-05-01 07:57 | 43.78333 | 89.60925 | 34640 ft | 469 kts | 102° |
| 2026-05-01 07:58 | 43.76408 | 89.69549 | 35110 ft | 470 kts | 103° |
| 2026-05-01 07:58 | 43.74466 | 89.78191 | 35581 ft | 470 kts | 103° |
| 2026-05-01 07:59 | 43.72511 | 89.86835 | 36000 ft | 471 kts | 103° |
| 2026-05-01 07:59 | 43.70553 | 89.95457 | 36482 ft | 472 kts | 103° |
| 2026-05-01 08:00 | 43.66639 | 90.12775 | 37370 ft | 473 kts | 102° |
| 2026-05-01 08:01 | 43.63859 | 90.25827 | 37916 ft | 476 kts | 102° |
| 2026-05-01 08:01 | 43.62925 | 90.30181 | 38091 ft | 477 kts | 102° |
| 2026-05-01 08:01 | 43.61975 | 90.34598 | 38259 ft | 478 kts | 102° |
| 2026-05-01 08:02 | 43.60069 | 90.43414 | 38573 ft | 481 kts | 103° |
| 2026-05-01 08:02 | 43.59108 | 90.47842 | 38721 ft | 483 kts | 103° |
| 2026-05-01 08:03 | 43.57175 | 90.56705 | 39015 ft | 485 kts | 103° |
| 2026-05-01 08:03 | 43.56202 | 90.61159 | 39151 ft | 486 kts | 103° |
| 2026-05-01 08:03 | 43.54237 | 90.70120 | 39261 ft | 489 kts | 103° |
| 2026-05-01 08:04 | 43.50294 | 90.87983 | 39263 ft | 489 kts | 103° |
| 2026-05-01 08:05 | 43.47319 | 91.01369 | 39265 ft | 488 kts | 103° |
| 2026-05-01 08:06 | 43.44325 | 91.14764 | 39270 ft | 489 kts | 103° |
| 2026-05-01 08:07 | 43.40304 | 91.32615 | 39269 ft | 488 kts | 103° |
| 2026-05-01 08:08 | 43.37265 | 91.45980 | 39259 ft | 489 kts | 103° |
| 2026-05-01 08:09 | 43.33189 | 91.63771 | 39243 ft | 489 kts | 103° |
| 2026-05-01 08:09 | 43.31147 | 91.72632 | 39250 ft | 489 kts | 104° |
| 2026-05-01 08:10 | 43.27037 | 91.90365 | 39243 ft | 489 kts | 104° |
| 2026-05-01 08:11 | 43.22895 | 92.08092 | 39238 ft | 489 kts | 105° |
| 2026-05-01 08:12 | 43.19759 | 92.21423 | 39227 ft | 490 kts | 105° |
| 2026-05-01 08:13 | 43.16611 | 92.34723 | 39216 ft | 490 kts | 105° |
| 2026-05-01 08:13 | 43.13450 | 92.48003 | 39215 ft | 491 kts | 105° |
| 2026-05-01 08:14 | 43.11330 | 92.56859 | 39213 ft | 492 kts | 105° |
| 2026-05-01 08:14 | 43.09190 | 92.65770 | 39212 ft | 492 kts | 106° |
| 2026-05-01 08:15 | 43.05980 | 92.79068 | 39216 ft | 493 kts | 106° |
| 2026-05-01 08:16 | 43.03824 | 92.87961 | 39211 ft | 493 kts | 106° |
| 2026-05-01 08:16 | 43.01664 | 92.96828 | 39211 ft | 493 kts | 107° |
| 2026-05-01 08:17 | 42.99492 | 93.05720 | 39203 ft | 493 kts | 107° |
| 2026-05-01 08:17 | 42.97326 | 93.14541 | 39214 ft | 493 kts | 107° |
| 2026-05-01 08:18 | 42.95127 | 93.23466 | 39221 ft | 493 kts | 106° |
| 2026-05-01 08:19 | 42.90741 | 93.41180 | 39237 ft | 493 kts | 106° |
| 2026-05-01 08:19 | 42.88542 | 93.50007 | 39248 ft | 492 kts | 106° |
| 2026-05-01 08:20 | 42.86177 | 93.58746 | 39252 ft | 493 kts | 111° |
| 2026-05-01 08:20 | 42.83071 | 93.67099 | 39248 ft | 496 kts | 119° |
| 2026-05-01 08:21 | 42.79202 | 93.74890 | 39273 ft | 497 kts | 127° |
| 2026-05-01 08:21 | 42.74754 | 93.82111 | 39261 ft | 497 kts | 130° |
| 2026-05-01 08:22 | 42.70275 | 93.89198 | 39263 ft | 497 kts | 130° |
| 2026-05-01 08:22 | 42.65776 | 93.96320 | 39262 ft | 497 kts | 130° |
| 2026-05-01 08:23 | 42.61254 | 94.03478 | 39266 ft | 498 kts | 129° |
| 2026-05-01 08:23 | 42.56752 | 94.10592 | 39256 ft | 499 kts | 129° |
| 2026-05-01 08:24 | 42.52202 | 94.17765 | 39262 ft | 498 kts | 130° |
| 2026-05-01 08:24 | 42.47676 | 94.24880 | 39271 ft | 500 kts | 130° |
| 2026-05-01 08:25 | 42.43133 | 94.32004 | 39264 ft | 499 kts | 130° |
| 2026-05-01 08:25 | 42.38601 | 94.39097 | 39261 ft | 499 kts | 130° |
| 2026-05-01 08:26 | 42.34060 | 94.46188 | 39266 ft | 500 kts | 130° |
| 2026-05-01 08:26 | 42.29507 | 94.53275 | 39274 ft | 499 kts | 130° |
| 2026-05-01 08:27 | 42.24956 | 94.60345 | 39275 ft | 500 kts | 130° |
| 2026-05-01 08:27 | 42.20395 | 94.67414 | 39278 ft | 499 kts | 131° |
| 2026-05-01 08:28 | 42.15789 | 94.74536 | 39273 ft | 500 kts | 131° |
| 2026-05-01 08:28 | 42.11223 | 94.81582 | 39279 ft | 500 kts | 131° |
| 2026-05-01 08:29 | 42.06648 | 94.88618 | 39286 ft | 500 kts | 131° |
| 2026-05-01 08:29 | 42.02080 | 94.95634 | 39283 ft | 500 kts | 131° |
| 2026-05-01 08:30 | 41.97475 | 95.02689 | 39287 ft | 500 kts | 131° |
| 2026-05-01 08:30 | 41.92899 | 95.09682 | 39271 ft | 500 kts | 131° |
| 2026-05-01 08:31 | 41.88294 | 95.16705 | 39283 ft | 500 kts | 131° |
| 2026-05-01 08:31 | 41.83789 | 95.23812 | 39274 ft | 501 kts | 129° |
| 2026-05-01 08:32 | 41.79345 | 95.31055 | 39282 ft | 502 kts | 129° |
| 2026-05-01 08:32 | 41.74910 | 95.38277 | 39274 ft | 501 kts | 129° |
| 2026-05-01 08:33 | 41.70475 | 95.45481 | 39275 ft | 501 kts | 129° |
| 2026-05-01 08:33 | 41.66058 | 95.52632 | 39271 ft | 501 kts | 129° |
| 2026-05-01 08:34 | 41.61611 | 95.59822 | 39265 ft | 502 kts | 130° |
| 2026-05-01 08:34 | 41.57144 | 95.67023 | 39262 ft | 501 kts | 130° |
| 2026-05-01 08:35 | 41.52696 | 95.74176 | 39261 ft | 502 kts | 130° |
| 2026-05-01 08:35 | 41.48238 | 95.81330 | 39257 ft | 502 kts | 131° |
| 2026-05-01 08:36 | 41.43789 | 95.88451 | 39253 ft | 503 kts | 131° |
| 2026-05-01 08:36 | 41.39293 | 95.95635 | 39244 ft | 503 kts | 131° |
| 2026-05-01 08:37 | 41.34820 | 96.02758 | 39246 ft | 502 kts | 131° |
| 2026-05-01 08:37 | 41.30333 | 96.09892 | 39243 ft | 503 kts | 131° |
| 2026-05-01 08:38 | 41.25842 | 96.17011 | 39245 ft | 503 kts | 131° |
| 2026-05-01 08:38 | 41.21334 | 96.24144 | 39249 ft | 503 kts | 131° |
| 2026-05-01 08:39 | 41.16819 | 96.31269 | 39244 ft | 504 kts | 132° |
| 2026-05-01 08:39 | 41.12329 | 96.38341 | 39239 ft | 503 kts | 132° |
| 2026-05-01 08:40 | 41.05545 | 96.48991 | 39239 ft | 504 kts | 132° |
| 2026-05-01 08:40 | 41.01022 | 96.56069 | 39240 ft | 504 kts | 132° |
| 2026-05-01 08:41 | 40.96507 | 96.63121 | 39246 ft | 504 kts | 132° |
| 2026-05-01 08:41 | 40.91984 | 96.70171 | 39253 ft | 504 kts | 133° |
| 2026-05-01 08:42 | 40.87437 | 96.77240 | 39260 ft | 504 kts | 133° |
| 2026-05-01 08:42 | 40.82876 | 96.84312 | 39264 ft | 504 kts | 134° |
| 2026-05-01 08:43 | 40.78341 | 96.91328 | 39269 ft | 505 kts | 134° |
| 2026-05-01 08:43 | 40.73799 | 96.98339 | 39269 ft | 505 kts | 134° |
| 2026-05-01 08:44 | 40.69239 | 97.05366 | 39270 ft | 505 kts | 134° |
| 2026-05-01 08:44 | 40.64653 | 97.12412 | 39264 ft | 505 kts | 134° |
| 2026-05-01 08:45 | 40.60104 | 97.19389 | 39269 ft | 506 kts | 134° |
| 2026-05-01 08:45 | 40.55527 | 97.26395 | 39271 ft | 504 kts | 134° |
| 2026-05-01 08:46 | 40.50939 | 97.33400 | 39269 ft | 505 kts | 134° |
| 2026-05-01 08:46 | 40.46349 | 97.40391 | 39267 ft | 505 kts | 134° |
| 2026-05-01 08:47 | 40.41840 | 97.47398 | 39265 ft | 505 kts | 134° |
| 2026-05-01 08:47 | 40.37313 | 97.54468 | 39263 ft | 506 kts | 134° |
| 2026-05-01 08:48 | 40.32767 | 97.61552 | 39259 ft | 505 kts | 134° |
| 2026-05-01 08:48 | 40.28255 | 97.68558 | 39239 ft | 505 kts | 134° |
| 2026-05-01 08:49 | 40.23691 | 97.75622 | 39257 ft | 505 kts | 134° |
| 2026-05-01 08:49 | 40.19143 | 97.82651 | 39242 ft | 505 kts | 135° |
| 2026-05-01 08:50 | 40.14587 | 97.89671 | 39240 ft | 505 kts | 135° |
| 2026-05-01 08:50 | 40.10066 | 97.96626 | 39247 ft | 505 kts | 135° |
| 2026-05-01 08:51 | 40.05508 | 98.03621 | 39239 ft | 503 kts | 135° |
| 2026-05-01 08:51 | 40.00959 | 98.10589 | 39232 ft | 504 kts | 135° |
| 2026-05-01 08:52 | 39.96413 | 98.17535 | 39235 ft | 503 kts | 135° |
| 2026-05-01 08:52 | 39.91882 | 98.24442 | 39231 ft | 503 kts | 135° |
| 2026-05-01 08:53 | 39.87763 | 98.31853 | 39260 ft | 512 kts | 124° |
| 2026-05-01 08:53 | 39.84875 | 98.40453 | 39263 ft | 520 kts | 110° |
| 2026-05-01 08:54 | 39.83499 | 98.49653 | 39264 ft | 525 kts | 97° |
| 2026-05-01 08:54 | 39.82961 | 98.59143 | 39261 ft | 526 kts | 95° |
| 2026-05-01 08:55 | 39.82440 | 98.68639 | 39256 ft | 525 kts | 96° |
| 2026-05-01 08:55 | 39.81862 | 98.78091 | 39262 ft | 526 kts | 97° |
| 2026-05-01 08:56 | 39.81262 | 98.87536 | 39250 ft | 526 kts | 97° |
| 2026-05-01 08:56 | 39.80646 | 98.96991 | 39248 ft | 526 kts | 98° |
| 2026-05-01 08:57 | 39.79875 | 99.06435 | 39257 ft | 525 kts | 99° |
| 2026-05-01 08:57 | 39.79040 | 99.15894 | 39275 ft | 527 kts | 99° |
| 2026-05-01 08:58 | 39.78211 | 99.25356 | 39257 ft | 527 kts | 99° |
| 2026-05-01 08:58 | 39.77389 | 99.34772 | 39257 ft | 527 kts | 99° |
| 2026-05-01 08:59 | 39.76553 | 99.44292 | 39234 ft | 527 kts | 100° |
| 2026-05-01 08:59 | 39.75717 | 99.53727 | 39263 ft | 528 kts | 99° |
| 2026-05-01 09:00 | 39.74868 | 99.63225 | 39252 ft | 528 kts | 100° |
| 2026-05-01 09:00 | 39.74017 | 99.72671 | 39243 ft | 528 kts | 101° |
| 2026-05-01 09:01 | 39.73147 | 99.82172 | 39245 ft | 530 kts | 101° |
| 2026-05-01 09:01 | 39.72281 | 99.91614 | 39259 ft | 528 kts | 101° |
| 2026-05-01 09:02 | 39.71402 | 100.01102 | 39253 ft | 529 kts | 101° |
| 2026-05-01 09:02 | 39.70513 | 100.10563 | 39256 ft | 531 kts | 101° |
| 2026-05-01 09:03 | 39.69615 | 100.20070 | 39238 ft | 532 kts | 101° |
| 2026-05-01 09:03 | 39.68712 | 100.29546 | 39231 ft | 531 kts | 101° |
| 2026-05-01 09:04 | 39.67796 | 100.39082 | 39248 ft | 532 kts | 101° |
| 2026-05-01 09:04 | 39.66874 | 100.48581 | 39250 ft | 532 kts | 101° |
| 2026-05-01 09:05 | 39.65935 | 100.58165 | 39262 ft | 534 kts | 102° |
| 2026-05-01 09:05 | 39.64994 | 100.67699 | 39228 ft | 534 kts | 102° |
| 2026-05-01 09:06 | 39.64046 | 100.77237 | 39253 ft | 535 kts | 102° |
| 2026-05-01 09:06 | 39.63090 | 100.86770 | 39247 ft | 535 kts | 103° |
| 2026-05-01 09:07 | 39.62121 | 100.96332 | 39255 ft | 536 kts | 103° |
| 2026-05-01 09:07 | 39.61139 | 101.05977 | 39225 ft | 537 kts | 103° |
| 2026-05-01 09:08 | 39.60155 | 101.15514 | 39207 ft | 537 kts | 103° |
| 2026-05-01 09:08 | 39.59158 | 101.25114 | 39226 ft | 537 kts | 103° |
| 2026-05-01 09:09 | 39.58155 | 101.34708 | 39214 ft | 538 kts | 103° |
| 2026-05-01 09:09 | 39.57144 | 101.44296 | 39196 ft | 537 kts | 103° |
| 2026-05-01 09:10 | 39.56122 | 101.53896 | 39204 ft | 538 kts | 103° |
| 2026-05-01 09:10 | 39.55088 | 101.63528 | 39188 ft | 538 kts | 103° |
| 2026-05-01 09:11 | 39.54057 | 101.73074 | 39189 ft | 538 kts | 104° |
| 2026-05-01 09:11 | 39.53015 | 101.82655 | 39188 ft | 538 kts | 104° |
| 2026-05-01 09:12 | 39.51962 | 101.92258 | 39176 ft | 536 kts | 104° |
| 2026-05-01 09:12 | 39.50911 | 102.01765 | 39175 ft | 536 kts | 104° |
| 2026-05-01 09:13 | 39.49843 | 102.11333 | 39175 ft | 536 kts | 103° |
| 2026-05-01 09:13 | 39.48776 | 102.20830 | 39170 ft | 537 kts | 103° |
| 2026-05-01 09:14 | 39.47697 | 102.30379 | 39164 ft | 536 kts | 103° |
| 2026-05-01 09:14 | 39.46612 | 102.39920 | 39167 ft | 535 kts | 104° |
| 2026-05-01 09:15 | 39.45522 | 102.49419 | 39156 ft | 534 kts | 104° |
| 2026-05-01 09:15 | 39.44428 | 102.58897 | 39160 ft | 532 kts | 104° |
| 2026-05-01 09:16 | 39.43324 | 102.68327 | 39154 ft | 531 kts | 105° |
| 2026-05-01 09:17 | 39.40836 | 102.82084 | 39152 ft | 519 kts | 116° |
| 2026-05-01 09:17 | 39.37045 | 102.95092 | 39151 ft | 516 kts | 118° |
| 2026-05-01 09:18 | 39.33275 | 103.08072 | 39142 ft | 516 kts | 117° |
| 2026-05-01 09:19 | 39.29521 | 103.21148 | 39138 ft | 515 kts | 117° |
| 2026-05-01 09:20 | 39.25761 | 103.34150 | 39127 ft | 517 kts | 117° |
| 2026-05-01 09:21 | 39.20729 | 103.51469 | 39118 ft | 517 kts | 117° |
| 2026-05-01 09:21 | 39.16942 | 103.64435 | 39121 ft | 516 kts | 116° |
| 2026-05-01 09:22 | 39.11857 | 103.81733 | 39112 ft | 516 kts | 117° |
| 2026-05-01 09:23 | 39.08015 | 103.94730 | 39110 ft | 516 kts | 117° |
| 2026-05-01 09:24 | 39.04174 | 104.07657 | 39105 ft | 517 kts | 117° |
| 2026-05-01 09:25 | 38.99018 | 104.24923 | 39090 ft | 516 kts | 117° |
| 2026-05-01 09:26 | 38.95167 | 104.37748 | 39089 ft | 516 kts | 117° |
| 2026-05-01 09:26 | 38.91267 | 104.50670 | 39090 ft | 516 kts | 117° |
| 2026-05-01 09:27 | 38.87387 | 104.63470 | 39087 ft | 516 kts | 117° |
| 2026-05-01 09:28 | 38.84772 | 104.72068 | 39078 ft | 516 kts | 117° |
| 2026-05-01 09:28 | 38.82167 | 104.80605 | 39083 ft | 515 kts | 117° |
| 2026-05-01 09:29 | 38.78241 | 104.93413 | 39081 ft | 516 kts | 117° |
| 2026-05-01 09:30 | 38.74285 | 105.06267 | 39080 ft | 517 kts | 117° |
| 2026-05-01 09:30 | 38.70479 | 105.19160 | 39079 ft | 517 kts | 115° |
| 2026-05-01 09:31 | 38.68017 | 105.27760 | 39080 ft | 516 kts | 115° |
| 2026-05-01 09:32 | 38.64275 | 105.40698 | 39076 ft | 517 kts | 116° |
| 2026-05-01 09:32 | 38.60512 | 105.53612 | 39077 ft | 517 kts | 115° |
| 2026-05-01 09:33 | 38.57999 | 105.62207 | 39073 ft | 517 kts | 115° |
| 2026-05-01 09:34 | 38.54209 | 105.75127 | 39071 ft | 516 kts | 116° |
| 2026-05-01 09:34 | 38.50413 | 105.87985 | 39063 ft | 516 kts | 116° |
| 2026-05-01 09:35 | 38.46631 | 106.00760 | 39061 ft | 515 kts | 116° |
| 2026-05-01 09:36 | 38.44081 | 106.09331 | 39049 ft | 515 kts | 116° |
| 2026-05-01 09:36 | 38.41542 | 106.17863 | 39055 ft | 516 kts | 115° |
| 2026-05-01 09:37 | 38.39006 | 106.26400 | 39037 ft | 515 kts | 115° |
| 2026-05-01 09:37 | 38.35385 | 106.39356 | 39037 ft | 520 kts | 110° |
| 2026-05-01 09:38 | 38.33308 | 106.52991 | 39040 ft | 526 kts | 100° |
| 2026-05-01 09:39 | 38.31917 | 106.66800 | 39032 ft | 525 kts | 101° |
| 2026-05-01 09:39 | 38.30952 | 106.76045 | 39029 ft | 526 kts | 101° |
| 2026-05-01 09:40 | 38.29475 | 106.89866 | 39029 ft | 526 kts | 101° |
| 2026-05-01 09:41 | 38.28480 | 106.99098 | 39030 ft | 527 kts | 101° |
| 2026-05-01 09:41 | 38.26970 | 107.12957 | 39024 ft | 526 kts | 101° |
| 2026-05-01 09:42 | 38.25962 | 107.22148 | 39024 ft | 525 kts | 101° |
| 2026-05-01 09:43 | 38.23920 | 107.40514 | 39026 ft | 526 kts | 101° |
| 2026-05-01 09:43 | 38.22891 | 107.49672 | 39020 ft | 524 kts | 101° |
| 2026-05-01 09:44 | 38.21337 | 107.63414 | 39021 ft | 523 kts | 101° |
| 2026-05-01 09:45 | 38.20293 | 107.72549 | 39027 ft | 522 kts | 102° |
| 2026-05-01 09:45 | 38.18897 | 107.86276 | 39010 ft | 523 kts | 100° |
| 2026-05-01 09:46 | 38.18043 | 107.95407 | 39036 ft | 522 kts | 100° |
| 2026-05-01 09:46 | 38.17161 | 108.04579 | 39049 ft | 521 kts | 100° |
| 2026-05-01 09:47 | 38.16265 | 108.13763 | 39041 ft | 522 kts | 100° |
| 2026-05-01 09:47 | 38.15369 | 108.22856 | 39018 ft | 521 kts | 100° |
| 2026-05-01 09:48 | 38.14464 | 108.32024 | 39027 ft | 522 kts | 99° |
| 2026-05-01 09:48 | 38.13686 | 108.41239 | 39029 ft | 523 kts | 98° |
| 2026-05-01 09:49 | 38.12947 | 108.50388 | 39025 ft | 523 kts | 98° |
| 2026-05-01 09:49 | 38.12183 | 108.59602 | 39023 ft | 523 kts | 98° |
| 2026-05-01 09:50 | 38.11407 | 108.68797 | 39016 ft | 524 kts | 99° |
| 2026-05-01 09:50 | 38.10625 | 108.77951 | 39009 ft | 523 kts | 99° |
| 2026-05-01 09:51 | 38.09832 | 108.87151 | 39005 ft | 523 kts | 99° |
| 2026-05-01 09:51 | 38.09033 | 108.96333 | 38981 ft | 524 kts | 98° |
| 2026-05-01 09:52 | 38.08228 | 109.05544 | 38988 ft | 524 kts | 99° |
| 2026-05-01 09:52 | 38.07419 | 109.14696 | 38986 ft | 523 kts | 99° |
| 2026-05-01 09:53 | 38.06596 | 109.23897 | 38994 ft | 524 kts | 99° |
| 2026-05-01 09:53 | 38.05773 | 109.33036 | 38987 ft | 524 kts | 99° |
| 2026-05-01 09:54 | 38.04930 | 109.42233 | 38987 ft | 524 kts | 99° |
| 2026-05-01 09:54 | 38.04084 | 109.51448 | 38990 ft | 525 kts | 99° |
| 2026-05-01 09:55 | 38.03234 | 109.60648 | 38984 ft | 525 kts | 99° |
| 2026-05-01 09:55 | 38.02382 | 109.69798 | 38985 ft | 524 kts | 100° |
| 2026-05-01 09:56 | 38.01522 | 109.78936 | 38992 ft | 524 kts | 100° |
| 2026-05-01 09:56 | 38.00655 | 109.88087 | 38977 ft | 523 kts | 100° |
| 2026-05-01 09:57 | 37.99777 | 109.97279 | 38978 ft | 524 kts | 101° |
| 2026-05-01 09:57 | 37.98885 | 110.06492 | 38978 ft | 524 kts | 100° |
| 2026-05-01 09:58 | 37.97996 | 110.15634 | 38987 ft | 524 kts | 100° |
| 2026-05-01 09:58 | 37.97104 | 110.24754 | 38992 ft | 524 kts | 100° |
| 2026-05-01 09:59 | 37.96199 | 110.33893 | 38997 ft | 525 kts | 100° |
| 2026-05-01 09:59 | 37.95287 | 110.43066 | 38991 ft | 525 kts | 100° |
| 2026-05-01 10:00 | 37.94368 | 110.52241 | 38992 ft | 525 kts | 100° |
| 2026-05-01 10:00 | 37.93442 | 110.61410 | 38998 ft | 524 kts | 100° |
| 2026-05-01 10:01 | 37.92550 | 110.70544 | 38991 ft | 524 kts | 99° |
| 2026-05-01 10:01 | 37.91798 | 110.79791 | 38997 ft | 525 kts | 99° |
| 2026-05-01 10:02 | 37.91058 | 110.88946 | 39007 ft | 525 kts | 99° |
| 2026-05-01 10:02 | 37.90295 | 110.98142 | 39008 ft | 525 kts | 99° |
| 2026-05-01 10:03 | 37.89513 | 111.07366 | 39031 ft | 526 kts | 99° |
| 2026-05-01 10:03 | 37.88734 | 111.16495 | 39047 ft | 526 kts | 99° |
| 2026-05-01 10:04 | 37.87939 | 111.25731 | 39055 ft | 526 kts | 99° |
| 2026-05-01 10:04 | 37.87140 | 111.34920 | 39069 ft | 528 kts | 99° |
| 2026-05-01 10:05 | 37.86333 | 111.44164 | 39073 ft | 527 kts | 99° |
| 2026-05-01 10:05 | 37.85486 | 111.53397 | 39079 ft | 527 kts | 100° |
| 2026-05-01 10:06 | 37.84462 | 111.62591 | 39085 ft | 528 kts | 101° |
| 2026-05-01 10:06 | 37.83440 | 111.71748 | 39083 ft | 528 kts | 101° |
| 2026-05-01 10:07 | 37.82544 | 111.80984 | 39088 ft | 529 kts | 99° |
| 2026-05-01 10:07 | 37.81702 | 111.90227 | 39093 ft | 530 kts | 99° |
| 2026-05-01 10:08 | 37.80836 | 111.99478 | 38974 ft | 531 kts | 99° |
| 2026-05-01 10:08 | 37.80400 | 112.04097 | 38785 ft | 530 kts | 99° |
| 2026-05-01 10:08 | 37.79954 | 112.08765 | 38476 ft | 531 kts | 99° |
| 2026-05-01 10:09 | 37.79514 | 112.13364 | 38164 ft | 530 kts | 99° |
| 2026-05-01 10:09 | 37.79070 | 112.17965 | 37863 ft | 531 kts | 99° |
| 2026-05-01 10:09 | 37.78616 | 112.22629 | 37561 ft | 530 kts | 100° |
| 2026-05-01 10:09 | 37.77864 | 112.27107 | 37260 ft | 527 kts | 110° |
| 2026-05-01 10:10 | 37.76562 | 112.31426 | 37074 ft | 520 kts | 120° |
| 2026-05-01 10:10 | 37.70033 | 112.41910 | 37055 ft | 499 kts | 148° |
| 2026-05-01 10:11 | 37.64422 | 112.47004 | 37038 ft | 495 kts | 152° |
| 2026-05-01 10:11 | 37.58798 | 112.51953 | 37026 ft | 495 kts | 151° |
| 2026-05-01 10:12 | 37.53160 | 112.56962 | 37031 ft | 496 kts | 151° |
| 2026-05-01 10:13 | 37.44701 | 112.64529 | 37041 ft | 496 kts | 151° |
| 2026-05-01 10:13 | 37.39094 | 112.69537 | 37055 ft | 495 kts | 152° |
| 2026-05-01 10:14 | 37.30668 | 112.77050 | 37074 ft | 494 kts | 152° |
| 2026-05-01 10:14 | 37.25046 | 112.82050 | 37086 ft | 495 kts | 151° |
| 2026-05-01 10:15 | 37.19426 | 112.87048 | 37085 ft | 493 kts | 151° |
| 2026-05-01 10:15 | 37.13828 | 112.92011 | 37080 ft | 492 kts | 151° |
| 2026-05-01 10:16 | 37.08228 | 112.96963 | 37081 ft | 494 kts | 151° |
| 2026-05-01 10:17 | 36.99755 | 113.04445 | 37073 ft | 495 kts | 150° |
| 2026-05-01 10:17 | 36.91331 | 113.11864 | 37074 ft | 494 kts | 150° |
| 2026-05-01 10:18 | 36.82872 | 113.19292 | 37085 ft | 496 kts | 150° |
| 2026-05-01 10:19 | 36.77187 | 113.24273 | 37084 ft | 496 kts | 151° |
| 2026-05-01 10:19 | 36.71556 | 113.29195 | 37083 ft | 496 kts | 150° |
| 2026-05-01 10:20 | 36.63054 | 113.36614 | 37059 ft | 497 kts | 150° |
| 2026-05-01 10:20 | 36.57370 | 113.41560 | 37046 ft | 498 kts | 150° |
| 2026-05-01 10:21 | 36.48831 | 113.48973 | 37041 ft | 499 kts | 150° |
| 2026-05-01 10:22 | 36.40300 | 113.56361 | 37037 ft | 497 kts | 151° |
| 2026-05-01 10:23 | 36.31748 | 113.63744 | 37028 ft | 499 kts | 150° |
| 2026-05-01 10:23 | 36.23186 | 113.71121 | 37007 ft | 499 kts | 151° |
| 2026-05-01 10:24 | 36.11760 | 113.80926 | 36974 ft | 500 kts | 151° |
| 2026-05-01 10:25 | 36.00281 | 113.90746 | 36967 ft | 501 kts | 151° |
| 2026-05-01 10:26 | 35.94556 | 113.95631 | 36965 ft | 501 kts | 151° |
| 2026-05-01 10:27 | 35.83028 | 114.05437 | 36974 ft | 501 kts | 151° |
| 2026-05-01 10:28 | 35.74381 | 114.12772 | 36969 ft | 501 kts | 150° |
| 2026-05-01 10:28 | 35.65728 | 114.20091 | 36958 ft | 503 kts | 151° |
| 2026-05-01 10:29 | 35.57058 | 114.27406 | 36946 ft | 503 kts | 151° |
| 2026-05-01 10:30 | 35.45492 | 114.37130 | 36948 ft | 504 kts | 151° |
| 2026-05-01 10:31 | 35.33884 | 114.46864 | 36952 ft | 505 kts | 151° |
| 2026-05-01 10:32 | 35.25146 | 114.54161 | 36951 ft | 505 kts | 150° |
| 2026-05-01 10:33 | 35.13515 | 114.63853 | 36956 ft | 505 kts | 150° |
| 2026-05-01 10:34 | 35.04805 | 114.71084 | 36956 ft | 506 kts | 151° |
| 2026-05-01 10:34 | 34.98931 | 114.75953 | 36958 ft | 507 kts | 151° |
| 2026-05-01 10:35 | 34.90201 | 114.83167 | 36958 ft | 506 kts | 151° |
| 2026-05-01 10:35 | 34.84350 | 114.87995 | 36958 ft | 507 kts | 151° |
| 2026-05-01 10:36 | 34.75542 | 114.95245 | 36963 ft | 509 kts | 151° |
| 2026-05-01 10:37 | 34.69679 | 115.00063 | 36964 ft | 507 kts | 151° |
| 2026-05-01 10:37 | 34.60899 | 115.07253 | 36963 ft | 508 kts | 151° |
| 2026-05-01 10:38 | 34.55034 | 115.12051 | 36967 ft | 508 kts | 150° |
| 2026-05-01 10:38 | 34.49175 | 115.16836 | 36970 ft | 507 kts | 151° |
| 2026-05-01 10:39 | 34.43294 | 115.21629 | 36970 ft | 508 kts | 150° |
| 2026-05-01 10:39 | 34.40574 | 115.24454 | 36952 ft | 519 kts | 134° |
| 2026-05-01 10:39 | 34.38454 | 115.27955 | 36974 ft | 523 kts | 125° |
| 2026-05-01 10:40 | 34.34590 | 115.35453 | 36971 ft | 523 kts | 125° |
| 2026-05-01 10:40 | 34.30495 | 115.42715 | 36974 ft | 522 kts | 128° |
| 2026-05-01 10:41 | 34.25979 | 115.49533 | 36971 ft | 515 kts | 139° |
| 2026-05-01 10:41 | 34.20449 | 115.54849 | 36977 ft | 508 kts | 150° |
| 2026-05-01 10:42 | 34.17498 | 115.57202 | 36976 ft | 508 kts | 151° |
| 2026-05-01 10:42 | 34.11536 | 115.61900 | 36972 ft | 509 kts | 151° |
| 2026-05-01 10:43 | 34.05645 | 115.66580 | 36971 ft | 508 kts | 151° |
| 2026-05-01 10:43 | 33.99710 | 115.71320 | 36970 ft | 509 kts | 151° |
| 2026-05-01 10:44 | 33.93805 | 115.76038 | 36978 ft | 507 kts | 151° |
| 2026-05-01 10:44 | 33.87909 | 115.80741 | 36973 ft | 509 kts | 151° |
| 2026-05-01 10:45 | 33.82016 | 115.85436 | 36975 ft | 508 kts | 151° |
| 2026-05-01 10:45 | 33.76118 | 115.90131 | 36973 ft | 507 kts | 151° |
| 2026-05-01 10:46 | 33.70185 | 115.94842 | 36968 ft | 507 kts | 151° |
| 2026-05-01 10:46 | 33.64308 | 115.99497 | 36968 ft | 508 kts | 151° |
| 2026-05-01 10:47 | 33.58376 | 116.04191 | 36975 ft | 508 kts | 151° |
| 2026-05-01 10:47 | 33.52483 | 116.08849 | 36970 ft | 508 kts | 151° |
| 2026-05-01 10:48 | 33.46541 | 116.13535 | 36972 ft | 509 kts | 151° |
| 2026-05-01 10:48 | 33.40615 | 116.18201 | 36978 ft | 510 kts | 151° |
| 2026-05-01 10:49 | 33.34671 | 116.22877 | 36982 ft | 508 kts | 151° |
| 2026-05-01 10:49 | 33.28780 | 116.27500 | 36982 ft | 508 kts | 151° |
| 2026-05-01 10:50 | 33.22838 | 116.32153 | 36987 ft | 508 kts | 151° |
| 2026-05-01 10:50 | 33.16936 | 116.36772 | 36986 ft | 508 kts | 151° |
| 2026-05-01 10:51 | 33.11018 | 116.41393 | 36985 ft | 508 kts | 151° |
| 2026-05-01 10:51 | 33.05074 | 116.46027 | 36997 ft | 508 kts | 151° |
| 2026-05-01 10:52 | 32.99049 | 116.50462 | 36968 ft | 500 kts | 162° |
| 2026-05-01 10:52 | 32.95768 | 116.51658 | 36993 ft | 491 kts | 173° |
| 2026-05-01 10:52 | 32.92429 | 116.52439 | 36991 ft | 488 kts | 175° |
| 2026-05-01 10:53 | 32.85717 | 116.54031 | 36992 ft | 492 kts | 173° |
| 2026-05-01 10:53 | 32.79047 | 116.55936 | 36995 ft | 493 kts | 171° |
| 2026-05-01 10:54 | 32.72419 | 116.58266 | 36994 ft | 499 kts | 163° |
| 2026-05-01 10:54 | 32.66186 | 116.62177 | 37001 ft | 508 kts | 151° |
| 2026-05-01 10:55 | 32.60293 | 116.66769 | 36993 ft | 508 kts | 151° |
| 2026-05-01 10:55 | 32.54385 | 116.71389 | 36996 ft | 508 kts | 151° |
| 2026-05-01 10:56 | 32.48462 | 116.75977 | 37003 ft | 508 kts | 151° |
| 2026-05-01 10:56 | 32.42535 | 116.80544 | 37007 ft | 508 kts | 151° |
| 2026-05-01 10:57 | 32.36598 | 116.85104 | 37008 ft | 507 kts | 151° |
| 2026-05-01 10:57 | 32.30667 | 116.89652 | 37006 ft | 507 kts | 151° |
| 2026-05-01 10:58 | 32.24691 | 116.94231 | 37014 ft | 507 kts | 151° |
| 2026-05-01 10:58 | 32.18751 | 116.98774 | 37019 ft | 507 kts | 151° |
| 2026-05-01 10:59 | 32.12824 | 117.03301 | 37027 ft | 508 kts | 151° |
| 2026-05-01 10:59 | 32.06862 | 117.07845 | 37024 ft | 507 kts | 151° |
| 2026-05-01 11:00 | 32.00911 | 117.12378 | 37031 ft | 508 kts | 151° |
| 2026-05-01 11:00 | 31.95000 | 117.16872 | 37031 ft | 508 kts | 151° |
| 2026-05-01 11:01 | 31.88999 | 117.21432 | 36932 ft | 509 kts | 151° |
| 2026-05-01 11:01 | 31.86019 | 117.23695 | 36781 ft | 508 kts | 151° |
| 2026-05-01 11:01 | 31.83042 | 117.25948 | 36635 ft | 508 kts | 151° |
| 2026-05-01 11:01 | 31.80159 | 117.28316 | 36472 ft | 514 kts | 141° |
| 2026-05-01 11:02 | 31.77860 | 117.31547 | 36313 ft | 520 kts | 121° |
| 2026-05-01 11:02 | 31.76500 | 117.35513 | 36177 ft | 522 kts | 103° |
| 2026-05-01 11:02 | 31.75928 | 117.39698 | 36049 ft | 521 kts | 93° |
| 2026-05-01 11:02 | 31.75818 | 117.43919 | 35909 ft | 520 kts | 88° |
| 2026-05-01 11:03 | 31.75811 | 117.48196 | 35771 ft | 520 kts | 88° |
| 2026-05-01 11:03 | 31.75731 | 117.52444 | 35596 ft | 520 kts | 90° |
| 2026-05-01 11:03 | 31.75561 | 117.56647 | 35426 ft | 521 kts | 91° |
| 2026-05-01 11:03 | 31.75322 | 117.60927 | 35252 ft | 521 kts | 92° |
| 2026-05-01 11:04 | 31.75047 | 117.65183 | 35078 ft | 522 kts | 94° |
| 2026-05-01 11:04 | 31.74755 | 117.69401 | 34901 ft | 515 kts | 94° |
| 2026-05-01 11:04 | 31.74457 | 117.73580 | 34734 ft | 511 kts | 94° |
| 2026-05-01 11:04 | 31.74162 | 117.77676 | 34565 ft | 510 kts | 94° |
| 2026-05-01 11:05 | 31.73862 | 117.81863 | 34392 ft | 510 kts | 94° |
| 2026-05-01 11:05 | 31.73565 | 117.85986 | 34224 ft | 510 kts | 94° |
| 2026-05-01 11:05 | 31.73266 | 117.90134 | 34060 ft | 510 kts | 94° |
| 2026-05-01 11:05 | 31.72965 | 117.94302 | 33889 ft | 511 kts | 94° |
| 2026-05-01 11:06 | 31.72662 | 117.98474 | 33711 ft | 511 kts | 94° |
| 2026-05-01 11:06 | 31.72362 | 118.02619 | 33545 ft | 511 kts | 94° |
| 2026-05-01 11:06 | 31.72059 | 118.06759 | 33372 ft | 511 kts | 94° |
| 2026-05-01 11:07 | 31.71454 | 118.15088 | 33051 ft | 511 kts | 94° |
| 2026-05-01 11:07 | 31.71159 | 118.19280 | 33037 ft | 511 kts | 94° |
| 2026-05-01 11:07 | 31.70872 | 118.23417 | 32879 ft | 512 kts | 94° |
| 2026-05-01 11:07 | 31.70582 | 118.27575 | 32613 ft | 511 kts | 94° |
| 2026-05-01 11:08 | 31.70293 | 118.31725 | 32324 ft | 512 kts | 94° |
| 2026-05-01 11:08 | 31.69997 | 118.35928 | 31964 ft | 513 kts | 94° |
| 2026-05-01 11:08 | 31.69406 | 118.44243 | 31175 ft | 511 kts | 94° |
| 2026-05-01 11:09 | 31.69110 | 118.48391 | 30781 ft | 507 kts | 94° |
| 2026-05-01 11:09 | 31.68813 | 118.52515 | 30388 ft | 504 kts | 94° |
| 2026-05-01 11:09 | 31.68520 | 118.56576 | 29998 ft | 501 kts | 94° |
| 2026-05-01 11:10 | 31.67935 | 118.64652 | 29105 ft | 496 kts | 94° |
| 2026-05-01 11:10 | 31.67641 | 118.68700 | 28601 ft | 493 kts | 94° |
| 2026-05-01 11:10 | 31.67345 | 118.72723 | 28104 ft | 490 kts | 94° |
| 2026-05-01 11:10 | 31.67054 | 118.76691 | 27613 ft | 487 kts | 95° |
| 2026-05-01 11:11 | 31.66761 | 118.80667 | 27116 ft | 485 kts | 95° |
| 2026-05-01 11:11 | 31.66469 | 118.84614 | 26624 ft | 482 kts | 95° |
| 2026-05-01 11:11 | 31.66179 | 118.88499 | 26135 ft | 480 kts | 95° |
| 2026-05-01 11:11 | 31.65889 | 118.92365 | 25628 ft | 477 kts | 95° |
| 2026-05-01 11:12 | 31.65596 | 118.96259 | 25044 ft | 478 kts | 95° |
| 2026-05-01 11:12 | 31.65305 | 119.00140 | 24454 ft | 477 kts | 95° |
| 2026-05-01 11:12 | 31.65014 | 119.04008 | 23868 ft | 477 kts | 96° |
| 2026-05-01 11:12 | 31.64775 | 119.07921 | 23281 ft | 477 kts | 94° |
| 2026-05-01 11:13 | 31.64587 | 119.11796 | 22700 ft | 477 kts | 94° |
| 2026-05-01 11:13 | 31.64410 | 119.15645 | 22164 ft | 475 kts | 94° |
| 2026-05-01 11:13 | 31.64240 | 119.19508 | 21646 ft | 473 kts | 93° |
| 2026-05-01 11:13 | 31.64072 | 119.23348 | 21132 ft | 471 kts | 93° |
| 2026-05-01 11:14 | 31.63905 | 119.27167 | 20608 ft | 469 kts | 93° |
| 2026-05-01 11:14 | 31.63735 | 119.30997 | 20094 ft | 466 kts | 94° |
| 2026-05-01 11:14 | 31.63563 | 119.34772 | 19726 ft | 459 kts | 94° |
| 2026-05-01 11:14 | 31.63392 | 119.38485 | 19376 ft | 453 kts | 93° |
| 2026-05-01 11:15 | 31.63219 | 119.42144 | 19013 ft | 447 kts | 93° |
| 2026-05-01 11:15 | 31.63045 | 119.45793 | 18655 ft | 441 kts | 93° |
| 2026-05-01 11:15 | 31.62875 | 119.49339 | 18304 ft | 436 kts | 93° |
| 2026-05-01 11:15 | 31.62707 | 119.52885 | 17944 ft | 430 kts | 93° |
| 2026-05-01 11:16 | 31.62539 | 119.56398 | 17581 ft | 425 kts | 93° |
| 2026-05-01 11:16 | 31.62374 | 119.59849 | 17232 ft | 421 kts | 93° |
| 2026-05-01 11:16 | 31.62208 | 119.63247 | 16882 ft | 416 kts | 93° |
| 2026-05-01 11:16 | 31.62045 | 119.66595 | 16532 ft | 411 kts | 94° |
| 2026-05-01 11:17 | 31.61888 | 119.69875 | 16179 ft | 407 kts | 94° |
| 2026-05-01 11:17 | 31.61734 | 119.73228 | 15817 ft | 402 kts | 93° |
| 2026-05-01 11:17 | 31.61587 | 119.76440 | 15472 ft | 398 kts | 93° |
| 2026-05-01 11:17 | 31.61438 | 119.79679 | 15114 ft | 394 kts | 93° |
| 2026-05-01 11:18 | 31.61290 | 119.82894 | 14754 ft | 390 kts | 93° |
| 2026-05-01 11:18 | 31.61145 | 119.86037 | 14398 ft | 386 kts | 93° |
| 2026-05-01 11:18 | 31.60999 | 119.89151 | 14045 ft | 382 kts | 93° |
| 2026-05-01 11:18 | 31.60854 | 119.92259 | 13683 ft | 378 kts | 93° |
| 2026-05-01 11:19 | 31.60709 | 119.95337 | 13322 ft | 374 kts | 93° |
| 2026-05-01 11:19 | 31.60566 | 119.98367 | 12957 ft | 371 kts | 93° |
| 2026-05-01 11:19 | 31.60423 | 120.01362 | 12596 ft | 368 kts | 93° |
| 2026-05-01 11:19 | 31.60280 | 120.04359 | 12232 ft | 364 kts | 93° |
| 2026-05-01 11:20 | 31.60138 | 120.07315 | 11887 ft | 361 kts | 93° |
| 2026-05-01 11:20 | 31.59999 | 120.10194 | 11777 ft | 350 kts | 93° |
| 2026-05-01 11:20 | 31.59863 | 120.13008 | 11775 ft | 336 kts | 93° |
| 2026-05-01 11:20 | 31.59733 | 120.15673 | 11774 ft | 323 kts | 93° |
| 2026-05-01 11:21 | 31.59607 | 120.18272 | 11775 ft | 310 kts | 93° |
| 2026-05-01 11:21 | 31.59487 | 120.20741 | 11774 ft | 298 kts | 93° |
| 2026-05-01 11:21 | 31.59371 | 120.23114 | 11749 ft | 289 kts | 93° |
| 2026-05-01 11:21 | 31.59253 | 120.25494 | 11402 ft | 292 kts | 93° |
| 2026-05-01 11:22 | 31.59133 | 120.27903 | 11014 ft | 296 kts | 93° |
| 2026-05-01 11:22 | 31.58960 | 120.30328 | 10625 ft | 300 kts | 97° |
| 2026-05-01 11:22 | 31.58594 | 120.32715 | 10245 ft | 303 kts | 103° |
| 2026-05-01 11:22 | 31.58002 | 120.35125 | 9854 ft | 306 kts | 108° |
| 2026-05-01 11:23 | 31.57308 | 120.37477 | 9471 ft | 308 kts | 109° |
| 2026-05-01 11:23 | 31.56586 | 120.39867 | 9085 ft | 311 kts | 109° |
| 2026-05-01 11:23 | 31.55865 | 120.42255 | 8700 ft | 313 kts | 109° |
| 2026-05-01 11:23 | 31.55139 | 120.44669 | 8349 ft | 313 kts | 109° |
| 2026-05-01 11:24 | 31.54422 | 120.47061 | 8152 ft | 307 kts | 109° |
| 2026-05-01 11:24 | 31.53723 | 120.49397 | 8005 ft | 300 kts | 109° |
| 2026-05-01 11:24 | 31.52371 | 120.53921 | 7710 ft | 288 kts | 108° |
| 2026-05-01 11:25 | 31.51710 | 120.56132 | 7561 ft | 282 kts | 108° |
| 2026-05-01 11:25 | 31.50443 | 120.60372 | 7267 ft | 271 kts | 108° |
| 2026-05-01 11:25 | 31.49817 | 120.62460 | 7122 ft | 270 kts | 108° |
| 2026-05-01 11:26 | 31.49186 | 120.64567 | 6975 ft | 270 kts | 108° |
| 2026-05-01 11:26 | 31.47942 | 120.68719 | 6904 ft | 270 kts | 108° |
| 2026-05-01 11:26 | 31.47318 | 120.70797 | 6902 ft | 270 kts | 108° |
| 2026-05-01 11:27 | 31.46694 | 120.72875 | 6791 ft | 271 kts | 108° |
| 2026-05-01 11:27 | 31.46070 | 120.74947 | 6549 ft | 270 kts | 108° |
| 2026-05-01 11:27 | 31.45443 | 120.77032 | 6304 ft | 269 kts | 108° |
| 2026-05-01 11:27 | 31.44827 | 120.79079 | 6063 ft | 268 kts | 108° |
| 2026-05-01 11:28 | 31.44206 | 120.81145 | 5819 ft | 268 kts | 108° |
| 2026-05-01 11:28 | 31.43583 | 120.83215 | 5625 ft | 265 kts | 108° |
| 2026-05-01 11:28 | 31.42970 | 120.85244 | 5451 ft | 261 kts | 108° |
| 2026-05-01 11:29 | 31.41774 | 120.89211 | 5109 ft | 255 kts | 109° |
| 2026-05-01 11:29 | 31.41184 | 120.91157 | 4944 ft | 252 kts | 109° |
| 2026-05-01 11:29 | 31.40138 | 120.94937 | 4755 ft | 239 kts | 102° |
| 2026-05-01 11:30 | 31.39875 | 120.96893 | 4557 ft | 238 kts | 95° |
| 2026-05-01 11:30 | 31.39738 | 120.98831 | 4364 ft | 237 kts | 94° |
| 2026-05-01 11:30 | 31.39617 | 121.00736 | 4176 ft | 237 kts | 94° |
| 2026-05-01 11:30 | 31.39495 | 121.02667 | 3972 ft | 236 kts | 94° |
| 2026-05-01 11:31 | 31.39370 | 121.04600 | 3763 ft | 236 kts | 94° |
| 2026-05-01 11:31 | 31.39246 | 121.06499 | 3549 ft | 236 kts | 95° |
| 2026-05-01 11:31 | 31.39117 | 121.08427 | 3331 ft | 237 kts | 95° |
| 2026-05-01 11:31 | 31.38993 | 121.10359 | 3106 ft | 237 kts | 92° |
| 2026-05-01 11:32 | 31.39312 | 121.12255 | 2869 ft | 239 kts | 62° |
| 2026-05-01 11:32 | 31.40434 | 121.13664 | 2656 ft | 241 kts | 30° |
| 2026-05-01 11:32 | 31.42025 | 121.14323 | 2438 ft | 241 kts | 5° |
| 2026-05-01 11:32 | 31.43706 | 121.14301 | 2250 ft | 240 kts | 355° |
| 2026-05-01 11:33 | 31.45366 | 121.14123 | 2079 ft | 239 kts | 353° |
| 2026-05-01 11:33 | 31.46957 | 121.13634 | 1999 ft | 231 kts | 327° |
| 2026-05-01 11:33 | 31.48038 | 121.12305 | 1994 ft | 219 kts | 293° |
| 2026-05-01 11:33 | 31.48267 | 121.10572 | 2002 ft | 218 kts | 258° |
| 2026-05-01 11:34 | 31.47615 | 121.09008 | 2006 ft | 217 kts | 224° |
| 2026-05-01 11:34 | 31.46316 | 121.08163 | 2011 ft | 215 kts | 189° |
| 2026-05-01 11:34 | 31.44852 | 121.08342 | 2008 ft | 215 kts | 154° |
| 2026-05-01 11:34 | 31.43728 | 121.09494 | 2010 ft | 216 kts | 120° |
| 2026-05-01 11:35 | 31.43377 | 121.11194 | 2011 ft | 219 kts | 85° |
| 2026-05-01 11:35 | 31.43925 | 121.12857 | 2013 ft | 222 kts | 50° |
| 2026-05-01 11:35 | 31.45184 | 121.13876 | 2013 ft | 223 kts | 15° |
| 2026-05-01 11:35 | 31.46724 | 121.13895 | 2010 ft | 222 kts | 340° |
| 2026-05-01 11:36 | 31.47988 | 121.12918 | 2005 ft | 220 kts | 306° |
| 2026-05-01 11:36 | 31.48560 | 121.11292 | 2006 ft | 219 kts | 272° |
| 2026-05-01 11:36 | 31.48232 | 121.09554 | 2004 ft | 217 kts | 236° |
| 2026-05-01 11:36 | 31.47131 | 121.08386 | 2009 ft | 215 kts | 202° |
| 2026-05-01 11:37 | 31.45655 | 121.08176 | 2010 ft | 215 kts | 167° |
| 2026-05-01 11:37 | 31.44413 | 121.09068 | 2005 ft | 216 kts | 125° |
| 2026-05-01 11:37 | 31.43763 | 121.10667 | 2018 ft | 218 kts | 110° |
| 2026-05-01 11:37 | 31.43285 | 121.12357 | 2015 ft | 218 kts | 108° |
| 2026-05-01 11:38 | 31.42829 | 121.14072 | 2016 ft | 218 kts | 108° |
| 2026-05-01 11:38 | 31.42395 | 121.15776 | 2014 ft | 217 kts | 107° |
| 2026-05-01 11:38 | 31.41972 | 121.17474 | 2010 ft | 217 kts | 107° |
| 2026-05-01 11:38 | 31.41556 | 121.19168 | 2010 ft | 217 kts | 107° |
| 2026-05-01 11:39 | 31.41138 | 121.20875 | 2012 ft | 218 kts | 107° |
| 2026-05-01 11:39 | 31.40718 | 121.22598 | 2013 ft | 218 kts | 107° |
| 2026-05-01 11:39 | 31.40301 | 121.24313 | 2016 ft | 218 kts | 107° |
| 2026-05-01 11:39 | 31.39880 | 121.26038 | 2013 ft | 218 kts | 107° |
| 2026-05-01 11:40 | 31.39466 | 121.27737 | 2019 ft | 218 kts | 107° |
| 2026-05-01 11:40 | 31.39045 | 121.29459 | 2023 ft | 218 kts | 107° |
| 2026-05-01 11:40 | 31.38574 | 121.31162 | 2013 ft | 218 kts | 121° |
| 2026-05-01 11:40 | 31.37507 | 121.32403 | 2010 ft | 217 kts | 156° |
| 2026-05-01 11:41 | 31.36047 | 121.32837 | 2022 ft | 214 kts | 176° |
| 2026-05-01 11:41 | 31.34579 | 121.32901 | 2020 ft | 204 kts | 180° |
| 2026-05-01 11:41 | 31.33192 | 121.32912 | 2020 ft | 193 kts | 180° |
| 2026-05-01 11:41 | 31.31910 | 121.32955 | 2004 ft | 174 kts | 179° |
| 2026-05-01 11:42 | 31.30712 | 121.33017 | 1817 ft | 167 kts | 178° |
| 2026-05-01 11:42 | 31.29572 | 121.33084 | 1605 ft | 161 kts | 178° |
| 2026-05-01 11:42 | 31.28458 | 121.33149 | 1392 ft | 156 kts | 177° |
| 2026-05-01 11:42 | 31.27389 | 121.33211 | 1188 ft | 150 kts | 177° |
| 2026-05-01 11:43 | 31.26353 | 121.33269 | 996 ft | 144 kts | 177° |
| 2026-05-01 11:43 | 31.25370 | 121.33323 | 817 ft | 138 kts | 177° |
| 2026-05-01 11:43 | 31.24404 | 121.33376 | 650 ft | 138 kts | 176° |
| 2026-05-01 11:44 | 31.22475 | 121.33481 | 292 ft | 137 kts | 176° |
| 2026-05-01 11:44 | 31.21525 | 121.33532 | 114 ft | 137 kts | 176° |
| 2026-05-01 11:44 | 31.20582 | 121.33583 | 25 ft | 116 kts | 175° |
| 2026-05-01 11:44 | 31.20032 | 121.33616 | 25 ft | 56 kts | 177° |
| 2026-05-01 11:45 | 31.19701 | 121.33634 | 25 ft | 43 kts | 177° |
| 2026-05-01 11:45 | 31.19481 | 121.33646 | 25 ft | 23 kts | 176° |
| 2026-05-01 11:45 | 31.19327 | 121.33679 | 25 ft | 22 kts | 159° |
| 2026-05-01 11:45 | 31.19192 | 121.33763 | 25 ft | 21 kts | 147° |
| 2026-05-01 11:46 | 31.19111 | 121.33824 | 25 ft | 7 kts | 147° |
| 2026-05-01 11:46 | 31.19080 | 121.33862 | 25 ft | 4 kts | 117° |
| 2026-05-01 11:46 | 31.19083 | 121.33903 | 25 ft | 6 kts | 57° |
| 2026-05-01 11:46 | 31.19128 | 121.33919 | 25 ft | 8 kts | 2° |
| 2026-05-01 11:47 | 31.19191 | 121.33916 | 25 ft | 10 kts | 357° |
| 2026-05-01 11:47 | 31.19267 | 121.33912 | 25 ft | 11 kts | 357° |
| 2026-05-01 11:47 | 31.19354 | 121.33907 | 25 ft | 13 kts | 357° |
| 2026-05-01 11:47 | 31.19447 | 121.33902 | 25 ft | 11 kts | 357° |
| 2026-05-01 11:48 | 31.19536 | 121.33898 | 25 ft | 13 kts | 357° |
| 2026-05-01 11:48 | 31.19621 | 121.33893 | 25 ft | 12 kts | 357° |
| 2026-05-01 11:48 | 31.19715 | 121.33888 | 25 ft | 13 kts | 357° |
| 2026-05-01 11:48 | 31.19814 | 121.33882 | 25 ft | 14 kts | 357° |
| 2026-05-01 11:49 | 31.19871 | 121.33880 | 25 ft | 3 kts | 359° |
| 2026-05-01 11:49 | 31.19884 | 121.33884 | 25 ft | 1 kts | 41° |
| 2026-05-01 11:49 | 31.19891 | 121.33909 | 25 ft | 4 kts | 84° |
| 2026-05-01 11:49 | 31.19893 | 121.33945 | 25 ft | 3 kts | 85° |
| 2026-05-01 11:50 | 31.19894 | 121.33957 | 25 ft | 2 kts | 88° |
| 2026-05-01 11:50 | 31.19888 | 121.33973 | 25 ft | 3 kts | 137° |
| 2026-05-01 11:50 | 31.19870 | 121.33991 | 25 ft | 3 kts | 136° |
| 2026-05-01 11:50 | 31.19850 | 121.34013 | 25 ft | 4 kts | 136° |
| 2026-05-01 11:51 | 31.19835 | 121.34030 | 25 ft | 2 kts | 136° |
| 2026-05-01 11:51 | 31.19825 | 121.34040 | 25 ft | 1 kts | 136° |
| 2026-05-01 11:51 | 31.19821 | 121.34045 | 25 ft | 0 kts | 136° |
| 2026-05-01 11:51 | 31.19818 | 121.34049 | 25 ft | 0 kts | 136° |